AirNav   Everest Fuels
 
 1014 users online  

4NY9 Belmont Park Heliport
Elmont, New York, USA

GOING TO ELMONT?


FAA INFORMATION EFFECTIVE 23 MAY 2019

Location

FAA Identifier: 4NY9
Lat/Long: 40-42-52.3680N / 073-42-37.4710W
40-42.872800N / 073-42.624517W
40.7145467 / -73.7104086
(estimated)
Elevation: 72 ft. / 22 m (estimated)
Variation: 13W (1985)
Time zone: UTC -4 (UTC -5 during Standard Time)
Zip code: 11001

Heliport Operations

Heliport use: Private use. Permission required prior to landing
Activation date: 04/1968
Control tower: no
ARTCC: NEW YORK CENTER
FSS: NEW YORK FLIGHT SERVICE STATION
Attendance: UNATNDD
Wind indicator: no
Segmented circle: no

Heliport Communications

WX ASOS at JFK (5 nm SW): PHONE 718-656-0956
WX ASOS at LGA (8 nm NW): PHONE 718-672-6317
WX ASOS at FRG (14 nm E): PHONE 631-752-8129
WX AWOS-3PT at JRB (14 nm W): 128.175 (212-425-1534)
WX ASOS at TEB (18 nm NW): 132.025 (201-393-0855)

Nearby radio navigation aids

VOR radial/distance  VOR name  Freq  Var
JFKr042/5.6KENNEDY VOR/DME115.9012W
LGAr132/8.3LA GUARDIA VOR/DME113.1012W
CRIr065/10.4CANARSIE VOR/DME112.3011W
TEBr128/17.9TETERBORO VOR/DME108.4011W
DPKr268/19.1DEER PARK VOR/DME117.7012W
COLr051/31.7COLTS NECK VOR/DME115.4011W
CMKr202/34.4CARMEL VOR/DME116.6012W
BDRr237/37.7BRIDGEPORT VOR/DME108.8012W

 
NDB name  Hdg/Dist  Freq  Var  ID
FRIKK264/11.040714WFR ..-. .-.
BABYLON294/15.027514WBBN -... -... -.
CHATHAM106/32.725413WCAT -.-. .- -

Heliport Services

Airframe service: NONE
Powerplant service: NONE

Runway Information

Helipad H1

Dimensions: 75 x 40 ft. / 23 x 12 m
Surface: turf
Latitude: 40-42.872833N
Longitude: 073-42.624500W
Elevation: 72.0 ft.
Traffic pattern: leftleft

Heliport Ownership and Management from official FAA records

Ownership: Privately-owned
Owner: PO BOX 90
JAMAICA, NY 11417
Phone (718) 659-2293
Manager: ROBERT J. SICA
PO BOX 90
JAMAICA, NY 11417
Phone 718-659-2293

Additional Remarks

A52-H1 GRANDSTAND 0.6MI W. TREES 0.1MI SW 0.1MI E.
FOR CD CTC NEW YORK APCH AT 516-683-2962.

Instrument Procedures

There are no published instrument procedures at 4NY9.

Some nearby airports with instrument procedures:

KJFK - John F Kennedy International Airport (5 nm SW)
KLGA - LaGuardia Airport (8 nm NW)
6N5 - East 34th Street Heliport (12 nm W)
KFRG - Republic Airport (14 nm E)
KJRB - Downtown Manhattan/Wall Street Heliport (14 nm W)
KJRA - West 30th St Heliport (14 nm W)
KTEB - Teterboro Airport (18 nm NW)
 
Loc | Ops | Rwys | IFR | FBO | Links
Com | Nav | Svcs | Stats | Notes
Area around 4NY9 (Belmont Park Heliport)
 
Road maps at: MapQuest Bing Google
 
Aerial photo
No photo
 
Sectional chart

 
Airport distance calculator
Flying to Belmont Park Heliport? Find the distance to fly.

From to 4NY9

Sunrise and sunset
Times for 16-Jun-2019
 Local
(UTC-4)
 Zulu
(UTC)
Morning civil twilight04:5108:51
Sunrise05:2409:24
Sunset20:2700:27
Evening civil twilight21:0001:00

Current date and time
Zulu (UTC)  16-Jun-2019 15:56:39
Local (UTC-4)  16-Jun-2019 11:56:39
 
METAR
KJFK 
6nm SW 
161451Z 19011KT 10SM FEW060 FEW130 BKN200 BKN250 22/19 A2990 RMK AO2 SLP124 T02170194 58010
KLGA 
9nm NW 
161451Z 20010KT 10SM FEW032 SCT130 BKN170 BKN250 25/16 A2987 RMK AO2 SLP113 T02500156 58012
KNYC 
12nm W 
161451Z AUTO VRB03KT 10SM CLR 24/17 A2990 RMK AO2 SLP115 T02390172 58010 $
KFRG 
13nm E 
161453Z 19011KT 10SM CLR 22/18 A2990 RMK AO2 SLP124 T02170178 58009
KJRB 
14nm W 
161456Z AUTO 23005KT 10SM CLR 25/17 A2989 RMK AO2 PK WND 30041/1439 SLP120 P0002 60002 T02500172 58011
KTEB 
18nm NW 
161451Z 21009KT 10SM CLR 25/16 A2986 RMK AO2 SLP111 60000 T02500156 58011
TAF
KJFK 
6nm SW 
161401Z 1614/1718 19011KT P6SM SCT060 BKN150 FM161800 19013G22KT P6SM BKN060 FM162200 24012KT 5SM -SHRA BR VCTS BKN040CB FM170000 25010KT P6SM VCSH BKN040 FM170400 29006KT P6SM SCT040 BKN100 FM170800 33005KT P6SM BKN040 FM171200 01005KT P6SM BKN040
KLGA 
9nm NW 
161401Z 1614/1718 22010KT P6SM BKN120 FM161500 22012G18KT P6SM SCT060 BKN100 FM161800 21015G21KT P6SM VCSH BKN060 FM162200 25011KT 5SM -SHRA BR VCTS BKN040CB FM170000 27010KT P6SM VCSH BKN040 FM170400 31007KT P6SM SCT040 BKN100 FM170800 34005KT P6SM BKN040 FM171200 02005KT P6SM BKN040
KTEB 
18nm NW 
161401Z 1614/1718 20009KT P6SM BKN120 FM161500 22010G17KT P6SM SCT060 BKN100 FM162100 25010KT 5SM -SHRA BR VCTS BKN040CB FM162300 28008KT P6SM VCSH BKN040 FM170300 30004KT P6SM SCT040 BKN100 FM170600 VRB03KT P6SM BKN040 FM171200 02004KT P6SM BKN040
NOTAMs
Click for the latest NOTAMs
NOTAMs are issued by the DoD/FAA and will open in a separate window not controlled by AirNav.

 

 
 

Would you like to see your business listed on this page?

 If your business provides an interesting product or service to pilots, flight crews, aircraft, or users of the Belmont Park Heliport, you should consider listing it here.  To start the listing process, click on the button below
 
Add a business
 

Other Pages about Belmont Park Heliport

Update a link
 
Copyright © AirNav, LLC. All rights reserved. Privacy Policy  Contact